Time;durP1;ratioP1;P1;durP2;ratioP2;P2;SDS_P1;SDS_P2;PMS_P1;PMS_P2;Temp;Humidity;BMP_temperature;BMP_pressure;BME280_temperature;BME280_humidity;BME280_pressure;Samples;Min_cycle;Max_cycle;Signal;HPM_P1;HPM_P2
2023/05/14 00:01:39;;;;;;;21.23;16.13;;;410.00;2355.20;;;;;;5101459;28;20020;-84
2023/05/14 00:04:05;;;;;;;21.70;15.80;;;410.00;2355.20;;;;;;5100522;28;20027;-84
2023/05/14 00:06:31;;;;;;;15.50;13.40;;;410.00;2355.20;;;;;;5101035;28;20024;-83
2023/05/14 00:08:57;;;;;;;19.73;14.43;;;410.00;2355.20;;;;;;5099503;28;20067;-83
2023/05/14 00:11:23;;;;;;;16.40;12.93;;;409.90;2355.20;;;;;;5100909;28;20095;-82
2023/05/14 00:13:49;;;;;;;16.73;13.77;;;409.80;2355.20;;;;;;5095182;28;20585;-82
2023/05/14 00:16:15;;;;;;;21.95;17.50;;;409.90;2355.20;;;;;;5101126;28;20051;-83
2023/05/14 00:18:41;;;;;;;25.95;18.60;;;409.80;1971.20;;;;;;5117463;28;20032;-80
2023/05/14 00:21:07;;;;;;;30.33;21.83;;;409.90;2355.20;;;;;;5116775;28;20479;-79
2023/05/14 00:23:32;;;;;;;32.45;20.60;;;409.80;2355.20;;;;;;5117838;28;20038;-81
2023/05/14 00:25:59;;;;;;;30.88;23.20;;;409.90;2355.20;;;;;;5105349;28;20027;-84
2023/05/14 00:28:25;;;;;;;34.08;24.58;;;409.90;2355.20;;;;;;5113179;28;20032;-83
2023/05/14 00:30:51;;;;;;;23.25;16.98;;;409.90;2355.20;;;;;;5085346;28;20044;-83
2023/05/14 00:33:17;;;;;;;20.48;15.73;;;409.70;2355.20;;;;;;5085059;28;20407;-82
2023/05/14 00:35:43;;;;;;;25.40;16.50;;;409.60;2355.20;;;;;;5103012;28;20617;-82
2023/05/14 00:38:09;;;;;;;22.70;16.08;;;409.60;2355.20;;;;;;5101867;28;20028;-82
2023/05/14 00:40:35;;;;;;;20.13;16.65;;;384.90;2329.60;;;;;;5103859;28;20407;-84
2023/05/14 00:43:02;;;;;;;20.83;16.45;;;384.90;2329.60;;;;;;5120502;28;20012;-84
2023/05/14 00:45:28;;;;;;;20.95;14.90;;;384.90;2329.60;;;;;;5104582;28;20039;-83
2023/05/14 00:47:54;;;;;;;23.35;17.20;;;409.60;2355.20;;;;;;5102150;28;20027;-85
2023/05/14 00:50:20;;;;;;;21.52;17.33;;;409.90;2304.00;;;;;;5100453;28;20029;-83
2023/05/14 00:52:46;;;;;;;22.45;18.23;;;409.70;2355.20;;;;;;5099788;28;20050;-83
2023/05/14 00:55:15;;;;;;;27.67;20.80;;;409.70;2355.20;;;;;;5083613;28;20086;-83
2023/05/14 00:57:41;;;;;;;26.83;21.15;;;409.70;2099.20;;;;;;5079809;28;20074;-83
2023/05/14 01:00:07;;;;;;;24.13;18.92;;;409.70;2227.20;;;;;;5087557;28;20023;-82
2023/05/14 01:02:33;;;;;;;22.30;18.58;;;409.80;2355.20;;;;;;5102264;28;20031;-84
2023/05/14 01:04:59;;;;;;;23.13;18.92;;;409.90;2355.20;;;;;;5098595;28;20027;-82
2023/05/14 01:07:38;;;;;;;25.33;19.52;;;409.90;2355.20;;;;;;5097582;28;20506;-83
2023/05/14 01:10:35;;;;;;;21.17;18.50;;;410.00;2355.20;;;;;;5098178;28;20046;-82
2023/05/14 01:13:17;;;;;;;22.75;16.60;;;410.00;2355.20;;;;;;5098329;28;20077;-80
2023/05/14 01:15:45;;;;;;;20.02;16.98;;;410.00;2355.20;;;;;;5097975;28;20441;-82
2023/05/14 01:18:16;;;;;;;21.60;14.95;;;410.00;2355.20;;;;;;5097762;28;20057;-82
2023/05/14 01:20:43;;;;;;;17.08;15.27;;;410.00;2355.20;;;;;;5097613;28;20157;-84
2023/05/14 01:23:09;;;;;;;18.33;15.30;;;410.00;2355.20;;;;;;5097111;28;20137;-84
2023/05/14 01:25:36;;;;;;;21.70;16.58;;;410.00;2355.20;;;;;;5096664;28;20177;-83
2023/05/14 01:28:19;;;;;;;18.70;15.45;;;409.90;2355.20;;;;;;5097345;28;20021;-83
2023/05/14 01:31:00;;;;;;;17.85;15.40;;;409.80;2355.20;;;;;;5082391;28;20169;-83
2023/05/14 01:33:28;;;;;;;20.00;15.40;;;409.80;2073.60;;;;;;5095740;28;20040;-82
2023/05/14 01:35:54;;;;;;;18.42;14.20;;;409.80;2355.20;;;;;;5095945;28;20032;-82
2023/05/14 01:38:22;;;;;;;15.18;13.13;;;409.90;2304.00;;;;;;5096347;28;20054;-83
2023/05/14 01:40:49;;;;;;;17.60;14.02;;;410.00;2355.20;;;;;;5098442;28;20031;-82
2023/05/14 01:43:15;;;;;;;17.35;12.48;;;409.90;2355.20;;;;;;5097707;28;20043;-82
2023/05/14 01:45:42;;;;;;;17.48;13.25;;;384.30;2329.60;;;;;;5087993;28;20047;-84
2023/05/14 01:48:08;;;;;;;18.35;14.70;;;409.80;2355.20;;;;;;5076773;28;20119;-83
2023/05/14 01:50:34;;;;;;;20.23;14.63;;;409.90;2355.20;;;;;;5084342;28;20058;-82
2023/05/14 01:52:59;;;;;;;17.23;13.68;;;409.90;2176.00;;;;;;5096584;28;20019;-82
2023/05/14 01:55:25;;;;;;;18.95;14.60;;;409.90;2355.20;;;;;;5096741;28;20028;-82
2023/05/14 01:57:52;;;;;;;18.38;15.02;;;409.90;1971.20;;;;;;5096758;28;20031;-83
2023/05/14 02:00:18;;;;;;;26.05;18.17;;;410.30;2355.20;;;;;;5094363;28;20117;-82
2023/05/14 02:02:44;;;;;;;22.90;18.25;;;409.70;2355.20;;;;;;5078177;28;20078;-83
2023/05/14 02:05:11;;;;;;;26.25;18.65;;;409.60;2355.20;;;;;;5077676;28;20032;-81
2023/05/14 02:07:37;;;;;;;19.55;17.17;;;409.60;2355.20;;;;;;5097724;28;20051;-82
2023/05/14 02:10:03;;;;;;;21.63;17.75;;;409.70;2355.20;;;;;;5097742;28;20111;-83
2023/05/14 02:12:29;;;;;;;18.50;14.98;;;409.70;2355.20;;;;;;5098176;28;20035;-82
2023/05/14 02:14:55;;;;;;;19.17;15.30;;;384.70;2329.60;;;;;;5097139;28;20032;-82
2023/05/14 02:17:21;;;;;;;18.85;15.75;;;384.80;2329.60;;;;;;5097192;28;20027;-82
2023/05/14 02:19:47;;;;;;;23.05;17.23;;;384.90;2329.60;;;;;;5097920;28;20020;-83
2023/05/14 02:22:13;;;;;;;20.88;15.55;;;409.60;2355.20;;;;;;5097360;28;20028;-83
2023/05/14 02:24:39;;;;;;;25.45;16.45;;;409.60;2278.40;;;;;;5097642;28;20062;-82
2023/05/14 02:27:05;;;;;;;31.90;16.40;;;409.60;2355.20;;;;;;5093781;28;20038;-82
2023/05/14 02:29:31;;;;;;;19.58;15.82;;;409.60;2355.20;;;;;;5077859;28;20024;-82
2023/05/14 02:31:57;;;;;;;17.90;15.35;;;409.60;2355.20;;;;;;5076306;28;20029;-82
2023/05/14 02:34:23;;;;;;;20.33;15.25;;;384.90;2329.60;;;;;;5077183;28;20405;-83
2023/05/14 02:36:49;;;;;;;17.75;14.80;;;409.60;2355.20;;;;;;5077679;28;20078;-84
2023/05/14 02:39:14;;;;;;;17.75;14.95;;;409.60;2355.20;;;;;;5095724;28;20028;-84
2023/05/14 02:41:40;;;;;;;17.33;14.20;;;384.80;2329.60;;;;;;5097862;28;20020;-82
2023/05/14 02:44:06;;;;;;;16.48;13.43;;;384.60;2329.60;;;;;;5096998;28;20043;-82
2023/05/14 02:46:32;;;;;;;14.18;12.65;;;384.70;2329.60;;;;;;5097244;28;20600;-82
2023/05/14 02:48:58;;;;;;;16.38;13.80;;;384.80;2329.60;;;;;;5096387;28;20038;-82
2023/05/14 02:51:24;;;;;;;20.75;16.20;;;384.90;2329.60;;;;;;5098313;28;20028;-82
2023/05/14 02:53:49;;;;;;;17.85;14.88;;;384.90;2329.60;;;;;;5097242;28;20406;-82
2023/05/14 02:56:15;;;;;;;14.70;12.88;;;384.90;2329.60;;;;;;5096274;28;20024;-82
2023/05/14 02:58:41;;;;;;;13.82;11.65;;;384.90;2329.60;;;;;;5095388;28;20058;-82
2023/05/14 03:01:07;;;;;;;17.55;12.93;;;384.90;2329.60;;;;;;5096190;28;20024;-82
2023/05/14 03:03:34;;;;;;;14.02;12.57;;;409.70;2355.20;;;;;;5096387;28;20040;-83
2023/05/14 03:06:00;;;;;;;18.13;13.23;;;409.70;2355.20;;;;;;5096084;28;20387;-82
2023/05/14 03:08:26;;;;;;;17.17;12.73;;;409.70;2355.20;;;;;;5096757;28;20028;-84
2023/05/14 03:10:52;;;;;;;14.50;12.90;;;409.80;2355.20;;;;;;5095887;28;20027;-82
2023/05/14 03:13:19;;;;;;;14.98;12.32;;;409.80;2355.20;;;;;;5096836;28;20024;-81
2023/05/14 03:15:46;;;;;;;15.38;13.70;;;409.60;2355.20;;;;;;5095251;28;20447;-82
2023/05/14 03:18:12;;;;;;;17.48;11.55;;;410.00;2355.20;;;;;;5097222;28;20024;-83
2023/05/14 03:20:38;;;;;;;15.27;13.02;;;409.60;2355.20;;;;;;5095974;28;20032;-83
2023/05/14 03:23:04;;;;;;;16.00;13.13;;;409.60;2355.20;;;;;;5096847;28;20078;-83
2023/05/14 03:25:30;;;;;;;13.57;12.13;;;409.70;2355.20;;;;;;5096540;28;20039;-84
2023/05/14 03:27:56;;;;;;;16.38;12.25;;;409.70;2355.20;;;;;;5092392;28;20111;-83
2023/05/14 03:30:22;;;;;;;15.23;12.43;;;409.70;2304.00;;;;;;5096771;28;20031;-82
2023/05/14 03:32:48;;;;;;;15.63;12.57;;;409.70;2355.20;;;;;;5095941;28;20047;-83
2023/05/14 03:35:14;;;;;;;14.40;12.40;;;409.70;2355.20;;;;;;5096041;28;20040;-84
2023/05/14 03:37:40;;;;;;;16.92;13.60;;;409.70;2355.20;;;;;;5095781;28;20031;-84
2023/05/14 03:40:06;;;;;;;14.48;12.95;;;409.70;2355.20;;;;;;5096510;28;20024;-81
2023/05/14 03:42:32;;;;;;;18.00;13.50;;;409.70;2355.20;;;;;;5097322;28;20485;-82
2023/05/14 03:44:58;;;;;;;17.33;13.00;;;409.60;2355.20;;;;;;5097314;28;20101;-83
2023/05/14 03:47:24;;;;;;;16.42;14.20;;;409.60;2355.20;;;;;;5097604;28;20020;-84
2023/05/14 03:49:50;;;;;;;18.92;13.43;;;409.70;2355.20;;;;;;5096363;28;20035;-83
2023/05/14 03:52:15;;;;;;;16.92;11.88;;;409.70;2355.20;;;;;;5096828;28;20092;-82
2023/05/14 03:54:41;;;;;;;17.70;12.35;;;409.70;2355.20;;;;;;5095373;28;20053;-82
2023/05/14 03:57:07;;;;;;;15.25;11.88;;;409.60;1971.20;;;;;;5097057;28;20091;-83
2023/05/14 03:59:33;;;;;;;15.05;13.02;;;409.70;2355.20;;;;;;5098410;28;20027;-83
2023/05/14 04:01:59;;;;;;;19.02;13.15;;;409.70;2355.20;;;;;;5100376;28;20506;-81
2023/05/14 04:04:25;;;;;;;15.10;12.73;;;409.70;2022.40;;;;;;5099959;28;20028;-83
2023/05/14 04:06:50;;;;;;;19.00;14.05;;;409.70;2355.20;;;;;;5099605;28;20353;-82
2023/05/14 04:09:16;;;;;;;16.55;13.32;;;409.60;2355.20;;;;;;5101263;28;20368;-82
2023/05/14 04:11:42;;;;;;;22.52;14.02;;;409.60;2355.20;;;;;;5098890;28;20024;-82
2023/05/14 04:14:08;;;;;;;16.85;13.57;;;384.90;2329.60;;;;;;5100502;28;20129;-84
2023/05/14 04:16:34;;;;;;;23.30;14.02;;;384.90;2329.60;;;;;;5100365;28;20032;-83
2023/05/14 04:19:03;;;;;;;16.90;14.55;;;384.90;2329.60;;;;;;5098759;28;20024;-83
2023/05/14 04:21:29;;;;;;;17.27;13.75;;;384.90;2329.60;;;;;;5079989;28;20024;-82
2023/05/14 04:23:55;;;;;;;15.48;13.80;;;384.90;2329.60;;;;;;5078869;28;20031;-84
2023/05/14 04:26:20;;;;;;;18.05;14.23;;;384.90;2329.60;;;;;;5097674;28;20109;-82
2023/05/14 04:28:46;;;;;;;17.95;13.48;;;384.90;2329.60;;;;;;5098606;28;20096;-83
2023/05/14 04:31:12;;;;;;;14.20;12.70;;;384.90;2329.60;;;;;;5098343;28;20087;-83
2023/05/14 04:33:38;;;;;;;15.93;12.35;;;384.90;2329.60;;;;;;5098099;28;20583;-82
2023/05/14 04:36:05;;;;;;;14.70;13.00;;;384.90;2329.60;;;;;;5099571;28;20067;-82
2023/05/14 04:38:31;;;;;;;17.42;13.85;;;384.90;2329.60;;;;;;5100338;28;20021;-84
2023/05/14 04:40:57;;;;;;;16.67;13.13;;;384.70;2329.60;;;;;;5100288;28;20035;-81
2023/05/14 04:43:23;;;;;;;22.50;17.23;;;384.80;2329.60;;;;;;5101287;28;20039;-82
2023/05/14 04:45:50;;;;;;;33.92;23.58;;;384.70;2329.60;;;;;;5098332;28;20032;-82
2023/05/14 04:48:16;;;;;;;25.58;18.75;;;384.70;2329.60;;;;;;5099367;28;20035;-82
2023/05/14 04:50:43;;;;;;;20.33;18.10;;;384.80;2329.60;;;;;;5098879;28;20020;-82
2023/05/14 04:53:09;;;;;;;17.98;16.08;;;384.80;2329.60;;;;;;5099720;28;20099;-83
2023/05/14 04:55:35;;;;;;;18.65;16.27;;;384.80;2329.60;;;;;;5098656;28;20020;-82
2023/05/14 04:58:01;;;;;;;17.15;14.57;;;384.90;2329.60;;;;;;5100199;28;20375;-81
2023/05/14 05:00:28;;;;;;;20.67;18.30;;;384.80;2329.60;;;;;;5096240;28;20036;-82
2023/05/14 05:02:53;;;;;;;25.95;22.80;;;384.70;2329.60;;;;;;5099126;28;20020;-82
2023/05/14 05:05:20;;;;;;;22.48;20.08;;;384.70;2329.60;;;;;;5100140;28;20066;-82
2023/05/14 05:07:46;;;;;;;19.42;17.42;;;384.80;2329.60;;;;;;5098598;28;20020;-82
2023/05/14 05:10:12;;;;;;;19.38;13.70;;;384.80;2329.60;;;;;;5099295;28;20043;-82
2023/05/14 05:12:38;;;;;;;16.17;14.27;;;384.70;2329.60;;;;;;5098741;28;20054;-82
2023/05/14 05:15:05;;;;;;;17.45;14.45;;;384.80;2329.60;;;;;;5099177;28;20040;-84
2023/05/14 05:17:30;;;;;;;17.30;12.52;;;384.70;2329.60;;;;;;5099582;28;20069;-83
2023/05/14 05:19:56;;;;;;;17.00;13.15;;;384.70;2329.60;;;;;;5099372;28;20119;-82
2023/05/14 05:22:22;;;;;;;15.27;13.10;;;384.80;2329.60;;;;;;5098497;28;20117;-82
2023/05/14 05:24:48;;;;;;;13.90;11.43;;;384.80;2329.60;;;;;;5098954;28;20032;-83
2023/05/14 05:27:14;;;;;;;15.77;12.98;;;384.80;2329.60;;;;;;5098469;28;20483;-82
2023/05/14 05:29:40;;;;;;;15.18;11.95;;;384.80;2329.60;;;;;;5097703;28;20402;-81
2023/05/14 05:32:06;;;;;;;15.82;11.45;;;384.70;2329.60;;;;;;5096078;28;20081;-82
2023/05/14 05:34:33;;;;;;;14.18;11.85;;;384.70;2329.60;;;;;;5098126;28;20059;-81
2023/05/14 05:36:59;;;;;;;15.07;12.15;;;384.80;2329.60;;;;;;5096176;28;20024;-81
2023/05/14 05:39:25;;;;;;;13.80;11.65;;;384.80;2329.60;;;;;;5098220;28;20032;-83
2023/05/14 05:41:51;;;;;;;15.45;11.95;;;384.90;2329.60;;;;;;5096974;28;20028;-82
2023/05/14 05:44:16;;;;;;;17.65;13.48;;;384.90;2329.60;;;;;;5098229;28;20024;-81
2023/05/14 05:46:42;;;;;;;15.75;13.35;;;384.90;2329.60;;;;;;5097882;28;20020;-82
2023/05/14 05:49:08;;;;;;;18.30;13.68;;;384.90;2329.60;;;;;;5098275;28;20487;-81
2023/05/14 05:51:34;;;;;;;15.75;13.70;;;384.90;2329.60;;;;;;5096933;28;20073;-82
2023/05/14 05:54:00;;;;;;;16.30;13.60;;;384.90;2329.60;;;;;;5099774;28;20024;-83
2023/05/14 05:56:25;;;;;;;15.75;14.07;;;384.90;2329.60;;;;;;5097862;28;20036;-81
2023/05/14 05:58:51;;;;;;;16.20;13.68;;;384.90;2329.60;;;;;;5097495;28;20080;-82
2023/05/14 06:01:17;;;;;;;17.13;14.57;;;384.90;2329.60;;;;;;5098066;28;20495;-82
2023/05/14 06:03:43;;;;;;;17.23;14.68;;;384.90;2329.60;;;;;;5097593;28;20031;-82
2023/05/14 06:06:08;;;;;;;15.90;14.20;;;409.60;2355.20;;;;;;5088345;28;20468;-82
2023/05/14 06:08:34;;;;;;;17.90;16.00;;;409.60;2355.20;;;;;;5077234;28;20036;-82
2023/05/14 06:11:00;;;;;;;18.80;16.83;;;384.90;2329.60;;;;;;5083127;28;20463;-82
2023/05/14 06:13:26;;;;;;;21.30;19.20;;;384.90;2329.60;;;;;;5098436;28;20032;-81
2023/05/14 06:15:52;;;;;;;18.63;16.67;;;384.90;2329.60;;;;;;5096987;28;20488;-81
2023/05/14 06:18:17;;;;;;;20.52;17.63;;;384.90;2329.60;;;;;;5098169;28;20119;-81
2023/05/14 06:20:44;;;;;;;22.13;18.73;;;384.90;2329.60;;;;;;5096877;28;20054;-82
2023/05/14 06:23:11;;;;;;;20.92;17.70;;;384.90;2329.60;;;;;;5097917;28;20111;-81
2023/05/14 06:25:36;;;;;;;19.80;17.73;;;384.90;2329.60;;;;;;5096197;28;20031;-82
2023/05/14 06:28:02;;;;;;;20.23;18.08;;;384.90;2329.60;;;;;;5098813;28;20024;-82
2023/05/14 06:30:28;;;;;;;22.38;18.42;;;384.90;2329.60;;;;;;5097345;28;20031;-84
2023/05/14 06:32:54;;;;;;;22.15;19.85;;;384.80;2329.60;;;;;;5096884;28;20464;-83
2023/05/14 06:35:20;;;;;;;24.42;21.08;;;384.90;2329.60;;;;;;5097825;28;20044;-82
2023/05/14 06:37:46;;;;;;;22.35;19.85;;;384.90;2329.60;;;;;;5097509;28;20046;-81
2023/05/14 06:40:14;;;;;;;26.08;21.15;;;384.90;2329.60;;;;;;5097864;28;20024;-83
2023/05/14 06:42:40;;;;;;;27.70;22.70;;;384.90;2329.60;;;;;;5097458;28;20024;-82
2023/05/14 06:45:07;;;;;;;23.75;20.55;;;384.90;2329.60;;;;;;5097940;28;20027;-82
2023/05/14 06:47:32;;;;;;;24.83;21.23;;;409.60;2355.20;;;;;;5096758;28;20020;-81
2023/05/14 06:50:00;;;;;;;25.27;20.55;;;409.60;2355.20;;;;;;5097278;28;20046;-84
2023/05/14 06:52:26;;;;;;;24.67;21.42;;;409.60;2355.20;;;;;;5096678;28;20041;-81
2023/05/14 06:54:52;;;;;;;22.88;20.52;;;409.60;2355.20;;;;;;5096603;28;20585;-82
2023/05/14 06:57:18;;;;;;;24.80;20.25;;;409.60;2355.20;;;;;;5095946;28;20024;-83
2023/05/14 06:59:44;;;;;;;22.00;19.58;;;409.60;2355.20;;;;;;5097703;28;20024;-81
2023/05/14 07:02:10;;;;;;;22.58;19.92;;;409.60;2355.20;;;;;;5096684;28;20471;-82
2023/05/14 07:04:35;;;;;;;24.95;21.65;;;409.60;2355.20;;;;;;5098756;28;20024;-82
2023/05/14 07:07:01;;;;;;;23.58;21.27;;;409.60;2355.20;;;;;;5097850;28;20035;-81
2023/05/14 07:09:27;;;;;;;22.80;20.25;;;409.60;2355.20;;;;;;5098203;28;20070;-82
2023/05/14 07:11:53;;;;;;;21.40;18.92;;;409.60;2355.20;;;;;;5096469;28;20123;-81
2023/05/14 07:14:19;;;;;;;26.25;23.00;;;409.60;2355.20;;;;;;5097581;28;20035;-81
2023/05/14 07:16:45;;;;;;;25.73;22.92;;;409.60;2355.20;;;;;;5097527;28;20024;-84
2023/05/14 07:19:11;;;;;;;38.67;32.58;;;409.60;2355.20;;;;;;5097039;28;20028;-82
2023/05/14 07:21:37;;;;;;;33.35;29.85;;;409.60;2355.20;;;;;;5097460;28;20452;-82
2023/05/14 07:24:03;;;;;;;28.45;24.90;;;409.60;2355.20;;;;;;5097460;28;20116;-82
2023/05/14 07:26:30;;;;;;;22.67;19.98;;;409.60;2355.20;;;;;;5096367;28;20024;-81
2023/05/14 07:28:56;;;;;;;22.05;19.80;;;409.60;2355.20;;;;;;5097043;28;20016;-82
2023/05/14 07:31:22;;;;;;;24.98;22.38;;;409.70;2355.20;;;;;;5090315;28;20372;-82
2023/05/14 07:33:47;;;;;;;24.90;19.67;;;409.70;2355.20;;;;;;5077969;28;20048;-82
2023/05/14 07:36:13;;;;;;;23.60;19.27;;;409.70;2355.20;;;;;;5083660;28;20077;-83
2023/05/14 07:38:39;;;;;;;39.40;32.65;;;409.70;2355.20;;;;;;5100295;28;20026;-81
2023/05/14 07:41:05;;;;;;;31.67;25.60;;;409.70;2355.20;;;;;;5098778;28;20549;-81
2023/05/14 07:43:31;;;;;;;23.20;20.70;;;409.70;2355.20;;;;;;5100766;28;20410;-82
2023/05/14 07:45:57;;;;;;;21.05;18.80;;;409.70;2355.20;;;;;;5100023;28;20100;-81
2023/05/14 07:48:22;;;;;;;23.98;19.27;;;409.70;2355.20;;;;;;5099854;28;20467;-81
2023/05/14 07:50:48;;;;;;;22.58;19.13;;;409.70;2355.20;;;;;;5099673;28;20032;-83
2023/05/14 07:53:14;;;;;;;21.02;18.88;;;409.80;2355.20;;;;;;5099240;28;20096;-82
2023/05/14 07:55:41;;;;;;;20.27;18.15;;;409.70;2355.20;;;;;;5100045;28;20495;-83
2023/05/14 07:58:08;;;;;;;26.73;22.13;;;409.80;2355.20;;;;;;5100352;28;20052;-84
2023/05/14 08:00:33;;;;;;;27.85;22.67;;;409.80;2355.20;;;;;;5099492;28;20020;-82
2023/05/14 08:02:59;;;;;;;22.48;20.08;;;409.90;2355.20;;;;;;5099798;28;20020;-83
2023/05/14 08:05:25;;;;;;;26.73;19.88;;;409.90;2355.20;;;;;;5099332;28;20024;-81
2023/05/14 08:07:51;;;;;;;23.95;19.45;;;409.90;2355.20;;;;;;5100517;28;20035;-82
2023/05/14 08:10:17;;;;;;;23.13;20.63;;;410.00;2355.20;;;;;;5100034;28;20024;-81
2023/05/14 08:12:42;;;;;;;22.88;19.88;;;410.00;2355.20;;;;;;5100119;28;20020;-82
2023/05/14 08:15:09;;;;;;;22.80;18.65;;;410.00;2355.20;;;;;;5098829;28;20130;-81
2023/05/14 08:17:34;;;;;;;20.80;17.35;;;410.00;2355.20;;;;;;5099291;28;20111;-82
2023/05/14 08:20:01;;;;;;;19.52;17.20;;;410.00;2355.20;;;;;;5098657;28;20052;-82
2023/05/14 08:22:27;;;;;;;22.48;19.52;;;410.00;2355.20;;;;;;5098562;28;20052;-81
2023/05/14 08:24:53;;;;;;;21.67;19.45;;;410.00;2355.20;;;;;;5099451;28;20085;-81
2023/05/14 08:27:18;;;;;;;21.88;18.40;;;410.00;2355.20;;;;;;5099177;28;20417;-82
2023/05/14 08:29:46;;;;;;;24.17;21.67;;;410.00;2355.20;;;;;;5099402;28;20032;-82
2023/05/14 08:32:11;;;;;;;23.98;20.83;;;410.10;2355.20;;;;;;5081896;28;20037;-80
2023/05/14 08:34:37;;;;;;;22.85;19.75;;;410.00;2355.20;;;;;;5080025;28;20049;-87
2023/05/14 08:37:03;;;;;;;25.75;21.23;;;410.00;2355.20;;;;;;5097014;28;20108;-86
2023/05/14 08:39:29;;;;;;;23.30;18.95;;;410.20;2355.20;;;;;;5103755;28;20035;-87
2023/05/14 08:41:57;;;;;;;25.10;20.60;;;410.20;2355.20;;;;;;5096862;28;20024;-81
2023/05/14 08:44:37;;;;;;;23.83;18.40;;;409.70;2355.20;;;;;;5098774;28;20024;-83
2023/05/14 08:47:04;;;;;;;19.08;17.08;;;410.20;2355.20;;;;;;5097722;28;20020;-81
2023/05/14 08:49:44;;;;;;;23.58;16.52;;;410.20;2355.20;;;;;;5080553;28;20021;-83
2023/05/14 08:52:11;;;;;;;22.67;18.88;;;410.30;2355.20;;;;;;5081714;28;20054;-83
2023/05/14 08:54:38;;;;;;;24.52;20.05;;;410.50;2355.20;;;;;;5099084;28;20031;-82
2023/05/14 08:57:08;;;;;;;21.63;18.17;;;410.40;2355.20;;;;;;5097429;28;20024;-82
2023/05/14 08:59:33;;;;;;;19.10;16.58;;;410.50;2355.20;;;;;;5097315;28;20376;-82
2023/05/14 09:02:05;;;;;;;22.20;18.95;;;410.50;2355.20;;;;;;5095768;28;20031;-82
2023/05/14 09:04:31;;;;;;;19.52;15.77;;;410.50;2355.20;;;;;;5098773;28;20034;-84
2023/05/14 09:07:00;;;;;;;20.25;16.80;;;410.40;2355.20;;;;;;5084740;28;20028;-82
2023/05/14 09:09:26;;;;;;;22.30;19.92;;;410.40;2355.20;;;;;;5078480;28;20024;-83
2023/05/14 09:11:53;;;;;;;26.75;22.42;;;410.40;2355.20;;;;;;5090201;28;20031;-82
2023/05/14 09:14:19;;;;;;;24.17;20.58;;;410.40;2355.20;;;;;;5098556;28;20035;-82
2023/05/14 09:16:47;;;;;;;21.52;18.08;;;410.30;2355.20;;;;;;5101960;28;20115;-85
2023/05/14 09:19:14;;;;;;;21.60;19.35;;;410.30;2355.20;;;;;;5100138;28;20031;-85
2023/05/14 09:21:41;;;;;;;22.83;20.08;;;409.80;2355.20;;;;;;5102158;28;20024;-87
2023/05/14 09:24:07;;;;;;;23.05;19.27;;;410.30;2355.20;;;;;;5091736;28;20476;-88
2023/05/14 09:26:34;;;;;;;23.02;20.45;;;410.30;2355.20;;;;;;5081522;28;20028;-89
2023/05/14 09:29:01;;;;;;;24.73;22.10;;;410.50;2355.20;;;;;;5087474;28;20019;-89
2023/05/14 09:31:32;;;;;;;28.40;24.30;;;435.50;2355.20;;;;;;5099968;28;20028;-90
2023/05/14 09:33:59;;;;;;;24.42;21.30;;;460.80;2380.80;;;;;;5099230;28;20036;-90
2023/05/14 09:36:28;;;;;;;25.83;21.50;;;435.20;2355.20;;;;;;5100024;28;20047;-90
2023/05/14 09:38:57;;;;;;;27.92;24.90;;;435.20;2355.20;;;;;;5096383;28;20013;-90
2023/05/14 09:41:24;;;;;;;27.10;24.15;;;435.30;2355.20;;;;;;5100401;28;20020;-89
2023/05/14 09:43:50;;;;;;;36.13;30.20;;;410.00;2355.20;;;;;;5100184;28;20024;-88
2023/05/14 09:46:16;;;;;;;34.17;30.00;;;435.40;2355.20;;;;;;5099037;28;20387;-86
2023/05/14 09:48:44;;;;;;;22.45;20.15;;;435.50;2355.20;;;;;;5097664;28;20020;-86
2023/05/14 09:51:11;;;;;;;21.40;17.38;;;435.40;2355.20;;;;;;5098691;28;20484;-85
2023/05/14 09:53:40;;;;;;;22.23;17.55;;;435.30;2355.20;;;;;;5097523;28;20357;-88
2023/05/14 09:56:06;;;;;;;18.33;16.40;;;435.40;2355.20;;;;;;5097784;28;20103;-84
2023/05/14 09:58:31;;;;;;;24.17;18.42;;;435.40;2355.20;;;;;;5087227;28;20020;-85
2023/05/14 10:00:58;;;;;;;28.52;23.17;;;435.50;2355.20;;;;;;5085241;28;20016;-82
2023/05/14 10:03:26;;;;;;;27.35;21.40;;;435.50;2355.20;;;;;;5097022;28;20039;-83
2023/05/14 10:05:54;;;;;;;25.73;21.00;;;435.70;2355.20;;;;;;5095689;28;20035;-85
2023/05/14 10:08:32;;;;;;;18.20;15.93;;;435.60;2355.20;;;;;;5097496;28;20031;-85
2023/05/14 10:11:01;;;;;;;15.20;13.23;;;435.70;2355.20;;;;;;5096206;28;20023;-82
2023/05/14 10:13:33;;;;;;;12.48;11.15;;;435.80;2355.20;;;;;;5097406;28;20357;-83
2023/05/14 10:16:27;;;;;;;15.93;12.05;;;435.90;2355.20;;;;;;5095968;28;20028;-85
2023/05/14 10:18:59;;;;;;;11.75;10.13;;;436.10;2355.20;;;;;;5097200;28;20127;-83
2023/05/14 10:21:27;;;;;;;10.45;8.82;;;460.80;2380.80;;;;;;5096306;28;20422;-83
2023/05/14 10:23:53;;;;;;;13.00;10.40;;;460.90;2380.80;;;;;;5097273;28;20034;-82
2023/05/14 10:26:19;;;;;;;13.98;10.27;;;461.10;2380.80;;;;;;5089479;28;20028;-84
2023/05/14 10:28:46;;;;;;;15.85;9.63;;;461.20;2380.80;;;;;;5080369;28;20494;-85
2023/05/14 10:31:13;;;;;;;20.60;16.33;;;461.20;2380.80;;;;;;5082683;28;20028;-86
2023/05/14 10:33:48;;;;;;;11.05;8.15;;;461.20;2380.80;;;;;;5096757;28;20136;-84
2023/05/14 10:36:26;;;;;;;10.00;8.77;;;461.20;2380.80;;;;;;5079272;28;20036;-86
2023/05/14 10:38:56;;;;;;;14.45;12.30;;;461.20;2380.80;;;;;;5082207;28;20081;-84
2023/05/14 10:41:22;;;;;;;12.43;8.95;;;461.20;2380.80;;;;;;5092879;28;20070;-86
2023/05/14 10:43:48;;;;;;;11.88;8.77;;;461.10;2380.80;;;;;;5091216;28;20020;-83
2023/05/14 10:46:14;;;;;;;11.70;8.15;;;461.20;2380.80;;;;;;5092349;28;20043;-83
2023/05/14 10:48:42;;;;;;;7.60;6.63;;;461.10;2380.80;;;;;;5095873;28;20047;-84
2023/05/14 10:51:11;;;;;;;9.10;6.90;;;461.00;2380.80;;;;;;5095456;28;20471;-84
2023/05/14 10:53:41;;;;;;;9.98;8.10;;;460.90;2380.80;;;;;;5095297;28;20039;-82
2023/05/14 10:56:12;;;;;;;9.63;6.93;;;460.90;2380.80;;;;;;5078261;28;20199;-84
2023/05/14 10:58:42;;;;;;;12.50;8.00;;;460.90;2380.80;;;;;;5083479;28;20107;-84
2023/05/14 11:01:11;;;;;;;8.63;6.43;;;460.80;2380.80;;;;;;5094840;28;20531;-83
2023/05/14 11:03:45;;;;;;;9.52;7.03;;;460.80;2380.80;;;;;;5095497;28;20047;-85
2023/05/14 11:06:14;;;;;;;8.88;6.50;;;460.80;2380.80;;;;;;5082957;28;20028;-85
2023/05/14 11:08:40;;;;;;;10.52;7.28;;;436.10;2355.20;;;;;;5100118;28;20378;-85
2023/05/14 11:11:07;;;;;;;9.85;6.90;;;436.10;2355.20;;;;;;5098868;28;20111;-85
2023/05/14 11:13:33;;;;;;;8.93;6.93;;;436.10;2355.20;;;;;;5099615;28;20020;-83
2023/05/14 11:16:01;;;;;;;11.45;6.90;;;436.10;2355.20;;;;;;5097859;28;20032;-85
2023/05/14 11:18:40;;;;;;;8.52;5.90;;;460.80;2380.80;;;;;;5098806;28;20038;-82
2023/05/14 11:21:06;;;;;;;10.43;7.20;;;460.80;2380.80;;;;;;5098930;28;20016;-84
2023/05/14 11:23:32;;;;;;;9.00;7.25;;;460.80;2380.80;;;;;;5097746;28;20099;-84
2023/05/14 11:25:59;;;;;;;9.77;7.45;;;460.80;2380.80;;;;;;5116766;28;20028;-84
2023/05/14 11:28:26;;;;;;;8.98;7.15;;;460.80;2380.80;;;;;;5097964;28;20046;-86
2023/05/14 11:30:52;;;;;;;8.75;6.40;;;460.90;2380.80;;;;;;5116285;28;20028;-84
2023/05/14 11:33:19;;;;;;;10.25;7.82;;;460.90;2380.80;;;;;;5098262;28;20040;-81
2023/05/14 11:35:47;;;;;;;14.48;10.40;;;460.90;2380.80;;;;;;5116941;28;20035;-83
2023/05/14 11:38:22;;;;;;;15.88;10.98;;;461.20;2380.80;;;;;;5082330;28;20027;-85
2023/05/14 11:40:53;;;;;;;9.57;8.30;;;460.90;2380.80;;;;;;5088147;28;20027;-80
2023/05/14 11:43:19;;;;;;;13.18;8.38;;;460.90;2380.80;;;;;;5098975;28;20028;-84
2023/05/14 11:45:52;;;;;;;11.57;7.85;;;460.90;2380.80;;;;;;5098764;28;20043;-82
2023/05/14 11:48:19;;;;;;;11.13;8.80;;;460.90;2380.80;;;;;;5082274;28;20039;-83
2023/05/14 11:50:47;;;;;;;15.50;10.60;;;460.90;2380.80;;;;;;5099809;28;20024;-83
2023/05/14 11:53:25;;;;;;;18.23;15.25;;;461.00;2380.80;;;;;;5088433;28;20465;-84
2023/05/14 11:55:56;;;;;;;12.50;9.95;;;461.00;2380.80;;;;;;5099305;28;20036;-86
2023/05/14 11:58:23;;;;;;;37.80;11.80;;;461.00;2380.80;;;;;;5094417;28;20017;-82
2023/05/14 12:00:50;;;;;;;13.10;9.13;;;461.00;2380.80;;;;;;5094066;28;20024;-83